Time;durP1;ratioP1;P1;durP2;ratioP2;P2;SDS_P1;SDS_P2;PMS_P1;PMS_P2;Temp;Humidity;BMP_temperature;BMP_pressure;BME280_temperature;BME280_humidity;BME280_pressure;Samples;Min_cycle;Max_cycle;Signal;HPM_P1;HPM_P2
2023/01/10 00:02:01;;;;;;;0.10;0.10;;;4.10;99.90;;;;;;5076079;28;20437;-78
2023/01/10 00:04:29;;;;;;;0.10;0.10;;;4.00;99.90;;;;;;5069104;28;20437;-78
2023/01/10 00:06:56;;;;;;;0.60;0.30;;;4.10;99.90;;;;;;5084396;28;20431;-78
2023/01/10 00:09:23;;;;;;;0.10;0.10;;;4.00;99.90;;;;;;5075852;28;20429;-78
2023/01/10 00:14:35;;;;;;;0.20;0.20;;;3.90;99.90;;;;;;5076333;28;20427;-78
2023/01/10 00:17:02;;;;;;;0.20;0.20;;;3.80;99.90;;;;;;5075448;28;20426;-78
2023/01/10 00:19:29;;;;;;;0.10;0.10;;;3.80;99.90;;;;;;5082041;28;20516;-78
2023/01/10 00:21:57;;;;;;;0.10;0.10;;;3.80;8.70;;;;;;5080914;28;20436;-77
2023/01/10 00:24:24;;;;;;;0.20;0.20;;;3.70;99.90;;;;;;5073667;28;20435;-77
2023/01/10 00:26:51;;;;;;;0.10;0.10;;;3.70;99.90;;;;;;5085595;28;20878;-77
2023/01/10 00:29:26;;;;;;;0.10;0.10;;;3.80;1.00;;;;;;5082798;28;20422;-78
2023/01/10 00:31:53;;;;;;;0.70;0.30;;;3.90;1.00;;;;;;5077451;28;20929;-77
2023/01/10 00:34:20;;;;;;;0.05;0.05;;;3.90;98.70;;;;;;5077618;28;20792;-78
2023/01/10 00:36:47;;;;;;;0.10;0.10;;;4.00;1.00;;;;;;5076935;28;20421;-77
2023/01/10 00:39:15;;;;;;;0.20;0.20;;;3.90;1.00;;;;;;5083006;28;20453;-78
2023/01/10 00:44:28;;;;;;;0.10;0.10;;;3.80;99.90;;;;;;5082614;28;20426;-77
2023/01/10 00:46:54;;;;;;;0.10;0.10;;;3.80;1.00;;;;;;5076795;28;20430;-77
2023/01/10 00:49:21;;;;;;;0.30;0.20;;;3.70;99.90;;;;;;5086525;28;20430;-77
2023/01/10 00:51:51;;;;;;;0.10;0.10;;;3.70;99.90;;;;;;5089600;28;20427;-77
2023/01/10 00:54:18;;;;;;;0.10;0.10;;;3.60;99.90;;;;;;5073984;28;20454;-77
2023/01/10 00:56:45;;;;;;;0.10;0.10;;;3.50;1.00;;;;;;5078414;28;20427;-77
2023/01/10 00:59:14;;;;;;;0.10;0.10;;;3.50;1.00;;;;;;5080318;28;20427;-78
2023/01/10 01:01:41;;;;;;;0.10;0.10;;;3.50;1.00;;;;;;5073064;28;20450;-78
2023/01/10 01:04:10;;;;;;;0.20;0.20;;;3.30;1.00;;;;;;5092982;28;20430;-77
2023/01/10 01:06:37;;;;;;;0.13;0.13;;;3.20;1.00;;;;;;5080027;28;20433;-77
2023/01/10 01:09:04;;;;;;;0.20;0.20;;;3.20;49.50;;;;;;5085961;28;20423;-77
2023/01/10 01:11:30;;;;;;;0.30;0.30;;;3.20;99.90;;;;;;5089184;28;20423;-77
2023/01/10 01:13:57;;;;;;;0.20;0.20;;;3.10;99.90;;;;;;5072124;28;20941;-78
2023/01/10 01:16:24;;;;;;;0.20;0.20;;;3.10;1.00;;;;;;5079432;28;20424;-77
2023/01/10 01:18:51;;;;;;;0.10;0.10;;;3.10;99.90;;;;;;5086154;28;20444;-77
2023/01/10 01:21:21;;;;;;;0.10;0.10;;;3.20;1.00;;;;;;5078227;28;20430;-76
2023/01/10 01:23:47;;;;;;;0.10;0.10;;;3.20;99.90;;;;;;5073582;28;20473;-77
2023/01/10 01:26:14;;;;;;;0.10;0.10;;;3.30;99.90;;;;;;5081992;28;20844;-76
2023/01/10 01:28:41;;;;;;;0.50;0.25;;;3.50;99.90;;;;;;5073183;28;20432;-76
2023/01/10 01:31:09;;;;;;;0.20;0.20;;;3.50;1.00;;;;;;5088290;28;22156;-76
2023/01/10 01:33:36;;;;;;;0.10;0.10;;;3.50;99.90;;;;;;5091523;28;20935;-76
2023/01/10 01:36:10;;;;;;;0.20;0.20;;;3.50;69.10;;;;;;5090917;28;20446;-76
2023/01/10 01:38:38;;;;;;;0.10;0.10;;;3.50;1.00;;;;;;5077824;28;20431;-76
2023/01/10 01:41:55;;;;;;;0.10;0.10;;;3.50;99.90;;;;;;5079663;28;20593;-76
2023/01/10 01:44:14;;;;;;;0.10;0.10;;;3.50;1.00;;;;;;5093767;28;20991;-75
2023/01/10 01:46:44;;;;;;;0.10;0.10;;;3.60;1.00;;;;;;5088747;28;20468;-77
2023/01/10 01:49:17;;;;;;;0.30;0.30;;;3.60;99.90;;;;;;5098421;28;21140;-76
2023/01/10 01:51:48;;;;;;;0.00;0.00;;;3.60;1.00;;;;;;5073214;28;20424;-76
2023/01/10 01:54:17;;;;;;;0.10;0.10;;;3.60;1.00;;;;;;5081389;28;20493;-77
2023/01/10 01:56:50;;;;;;;0.10;0.10;;;3.50;1.00;;;;;;5096670;28;20430;-75
2023/01/10 01:59:25;;;;;;;0.10;0.10;;;3.50;1.00;;;;;;5070764;28;20505;-77
2023/01/10 02:01:56;;;;;;;0.10;0.10;;;3.50;1.00;;;;;;5079976;28;20455;-77
2023/01/10 02:04:30;;;;;;;0.10;0.10;;;3.50;1.00;;;;;;5083265;28;20955;-77
2023/01/10 02:07:00;;;;;;;0.10;0.10;;;3.60;1.00;;;;;;5097800;28;20436;-76
2023/01/10 02:09:58;;;;;;;0.10;0.10;;;3.70;1.00;;;;;;5073008;28;20515;-77
2023/01/10 02:12:26;;;;;;;0.10;0.10;;;3.80;1.00;;;;;;5084681;28;21121;-77
2023/01/10 02:14:55;;;;;;;0.10;0.10;;;3.90;1.00;;;;;;5094819;28;20426;-78
2023/01/10 02:17:22;;;;;;;0.10;0.10;;;3.90;99.90;;;;;;5071114;28;20432;-77
2023/01/10 02:20:02;;;;;;;0.20;0.20;;;4.00;99.90;;;;;;5082453;28;20433;-78
2023/01/10 02:23:01;;;;;;;0.10;0.10;;;4.00;67.60;;;;;;5078469;28;20467;-77
2023/01/10 02:25:42;;;;;;;0.10;0.10;;;4.00;1.00;;;;;;5086329;28;20548;-77
2023/01/10 02:28:42;;;;;;;0.10;0.10;;;4.00;1.00;;;;;;5082402;28;20425;-77
2023/01/10 02:31:15;;;;;;;0.10;0.10;;;4.00;1.00;;;;;;5080626;28;20441;-77
2023/01/10 02:34:11;;;;;;;0.10;0.10;;;4.00;1.00;;;;;;5085337;28;20426;-78
2023/01/10 02:36:51;;;;;;;0.10;0.10;;;4.10;1.00;;;;;;5088675;28;20428;-78
2023/01/10 02:39:44;;;;;;;0.28;0.15;;;4.10;99.90;;;;;;5089411;28;20445;-77
2023/01/10 02:42:17;;;;;;;0.10;0.10;;;4.00;99.90;;;;;;5080019;28;20519;-77
2023/01/10 02:44:59;;;;;;;3.40;0.20;;;4.00;99.90;;;;;;5095092;28;20434;-78
2023/01/10 02:47:33;;;;;;;0.10;0.10;;;4.10;99.90;;;;;;5066245;28;20435;-78
2023/01/10 02:50:28;;;;;;;0.10;0.10;;;4.10;99.90;;;;;;5084656;28;20908;-77
2023/01/10 02:53:02;;;;;;;0.60;0.25;;;4.00;99.90;;;;;;5072983;28;20504;-78
2023/01/10 02:55:52;;;;;;;0.10;0.10;;;3.90;23.60;;;;;;5093093;28;20426;-78
2023/01/10 02:58:43;;;;;;;0.20;0.20;;;3.70;1.00;;;;;;5098753;28;20428;-78
2023/01/10 03:01:24;;;;;;;0.90;0.90;;;3.60;49.90;;;;;;5085436;28;20432;-79
2023/01/10 03:04:00;;;;;;;0.20;0.20;;;3.50;23.40;;;;;;5074285;28;20428;-78
2023/01/10 03:06:55;;;;;;;0.20;0.20;;;3.20;1.00;;;;;;5078319;28;20910;-78
2023/01/10 03:09:34;;;;;;;0.20;0.20;;;3.00;1.00;;;;;;5086325;28;20433;-78
2023/01/10 03:12:10;;;;;;;0.30;0.30;;;2.60;1.00;;;;;;5093286;28;20975;-79
2023/01/10 03:14:38;;;;;;;0.20;0.20;;;2.40;1.00;;;;;;5085913;28;20456;-79
2023/01/10 03:17:09;;;;;;;0.20;0.20;;;2.20;85.40;;;;;;5098687;27;20795;-79
2023/01/10 03:19:46;;;;;;;0.10;0.10;;;2.10;99.90;;;;;;5083316;28;20429;-79
2023/01/10 03:22:18;;;;;;;0.10;0.10;;;1.90;99.90;;;;;;5087295;28;20460;-79
2023/01/10 03:24:48;;;;;;;0.10;0.10;;;1.80;1.00;;;;;;5099764;28;20787;-78
2023/01/10 03:27:28;;;;;;;0.10;0.10;;;1.60;80.80;;;;;;5084320;28;20428;-79
2023/01/10 03:30:16;;;;;;;0.10;0.10;;;1.50;99.90;;;;;;5086137;28;20436;-79
2023/01/10 03:32:43;;;;;;;0.10;0.10;;;1.70;99.90;;;;;;5090520;28;20427;-79
2023/01/10 03:35:13;;;;;;;0.10;0.10;;;1.70;1.00;;;;;;5084335;28;20502;-79
2023/01/10 03:37:51;;;;;;;0.10;0.10;;;1.50;1.00;;;;;;5068237;28;20511;-79
2023/01/10 03:40:40;;;;;;;0.10;0.10;;;1.50;1.00;;;;;;5076963;28;20425;-79
2023/01/10 03:46:12;;;;;;;0.10;0.10;;;1.60;1.00;;;;;;5079225;28;20506;-79
2023/01/10 03:48:43;;;;;;;0.20;0.20;;;1.60;99.90;;;;;;5079554;28;20430;-79
2023/01/10 03:51:11;;;;;;;0.10;0.10;;;1.60;99.90;;;;;;5087203;28;20600;-79
2023/01/10 03:53:39;;;;;;;0.30;0.30;;;1.60;1.00;;;;;;5073175;28;21022;-79
2023/01/10 03:56:06;;;;;;;0.20;0.20;;;1.60;1.00;;;;;;5081982;28;20427;-79
2023/01/10 03:58:33;;;;;;;0.10;0.10;;;1.70;99.90;;;;;;5072414;28;20428;-79
2023/01/10 04:01:00;;;;;;;0.10;0.10;;;1.70;99.90;;;;;;5085545;28;20851;-78
2023/01/10 04:03:27;;;;;;;0.10;0.10;;;1.90;1.00;;;;;;5084771;28;20435;-78
2023/01/10 04:05:53;;;;;;;0.10;0.10;;;1.90;1.00;;;;;;5082352;28;20433;-78
2023/01/10 04:08:20;;;;;;;0.10;0.10;;;2.00;1.00;;;;;;5089627;28;20646;-78
2023/01/10 04:10:49;;;;;;;0.05;0.05;;;1.90;1.00;;;;;;5073412;28;20427;-78
2023/01/10 04:13:19;;;;;;;0.08;0.08;;;1.90;1.00;;;;;;5091188;28;20437;-77
2023/01/10 04:15:46;;;;;;;0.10;0.10;;;1.80;1.00;;;;;;5088635;28;20879;-77
2023/01/10 04:18:14;;;;;;;0.20;0.20;;;2.00;99.90;;;;;;5089006;28;20421;-77
2023/01/10 04:20:42;;;;;;;0.20;0.20;;;2.30;99.90;;;;;;5086550;28;20430;-77
2023/01/10 04:23:08;;;;;;;0.20;0.20;;;2.60;1.00;;;;;;5070251;28;20437;-77
2023/01/10 04:25:35;;;;;;;0.20;0.20;;;2.90;1.00;;;;;;5077900;28;20426;-77
2023/01/10 04:28:02;;;;;;;0.30;0.30;;;3.10;1.00;;;;;;5077119;28;20483;-78
2023/01/10 04:30:28;;;;;;;0.30;0.30;;;3.30;1.00;;;;;;5073329;28;20433;-77
2023/01/10 04:32:55;;;;;;;0.15;0.15;;;3.50;99.90;;;;;;5100300;28;20427;-78
2023/01/10 04:35:22;;;;;;;0.10;0.10;;;3.60;99.90;;;;;;5083525;28;20500;-77
2023/01/10 04:37:48;;;;;;;0.10;0.10;;;3.80;1.00;;;;;;5072163;28;20431;-78
2023/01/10 04:40:18;;;;;;;0.20;0.20;;;3.80;99.90;;;;;;5084889;28;20477;-78
2023/01/10 04:42:47;;;;;;;0.38;0.38;;;3.90;99.90;;;;;;5074455;28;20466;-78
2023/01/10 04:45:19;;;;;;;0.10;0.10;;;3.90;99.90;;;;;;5075981;28;20431;-78
2023/01/10 04:47:54;;;;;;;0.17;0.17;;;3.90;99.90;;;;;;5081659;28;20459;-78
2023/01/10 04:50:22;;;;;;;0.20;0.20;;;3.90;99.90;;;;;;5073175;28;20431;-77
2023/01/10 04:52:49;;;;;;;0.20;0.20;;;3.90;99.90;;;;;;5084887;28;20427;-78
2023/01/10 04:55:16;;;;;;;0.70;0.50;;;3.80;99.90;;;;;;5085918;28;20429;-78
2023/01/10 04:57:43;;;;;;;1.00;0.30;;;3.90;99.90;;;;;;5078956;28;20426;-78
2023/01/10 05:00:11;;;;;;;0.20;0.20;;;4.00;99.90;;;;;;5091916;28;20426;-77
2023/01/10 05:02:47;;;;;;;0.30;0.30;;;4.00;99.90;;;;;;5091857;28;20560;-78
2023/01/10 05:05:14;;;;;;;0.40;0.40;;;4.00;99.90;;;;;;5090788;28;20428;-78
2023/01/10 05:07:44;;;;;;;0.22;0.22;;;3.90;99.90;;;;;;5090653;28;20421;-78
2023/01/10 05:10:11;;;;;;;0.20;0.20;;;3.90;99.90;;;;;;5090530;28;20938;-77
2023/01/10 05:12:38;;;;;;;0.40;0.40;;;3.80;99.90;;;;;;5100474;28;20431;-77
2023/01/10 05:15:05;;;;;;;1.40;0.57;;;3.90;99.90;;;;;;5101135;28;20446;-77
2023/01/10 05:17:32;;;;;;;2.35;0.88;;;4.00;99.90;;;;;;5073994;28;20869;-77
2023/01/10 05:19:59;;;;;;;0.20;0.20;;;4.00;99.90;;;;;;5072972;28;20427;-78
2023/01/10 05:22:28;;;;;;;0.10;0.10;;;4.10;99.90;;;;;;5089893;28;20453;-77
2023/01/10 05:24:58;;;;;;;0.10;0.10;;;4.10;99.90;;;;;;5090674;28;20424;-78
2023/01/10 05:27:25;;;;;;;0.10;0.10;;;4.20;99.90;;;;;;5090725;28;20425;-78
2023/01/10 05:29:51;;;;;;;10.40;0.40;;;4.20;99.90;;;;;;5091303;28;20469;-78
2023/01/10 05:32:18;;;;;;;0.30;0.30;;;4.20;99.90;;;;;;5079194;28;20441;-78
2023/01/10 05:34:45;;;;;;;0.40;0.40;;;4.20;99.90;;;;;;5082724;28;20434;-78
2023/01/10 05:37:12;;;;;;;0.30;0.30;;;4.20;99.90;;;;;;5075957;28;20441;-78
2023/01/10 05:39:42;;;;;;;0.20;0.20;;;4.20;99.90;;;;;;5072387;28;20432;-78
2023/01/10 05:42:09;;;;;;;0.22;0.22;;;4.10;99.90;;;;;;5072363;28;20438;-77
2023/01/10 05:44:35;;;;;;;0.20;0.20;;;4.10;99.90;;;;;;5073871;28;20428;-78
2023/01/10 05:47:02;;;;;;;0.10;0.10;;;4.10;99.90;;;;;;5074278;28;20431;-78
2023/01/10 05:49:29;;;;;;;0.20;0.20;;;4.00;99.90;;;;;;5093063;28;20976;-78
2023/01/10 05:51:55;;;;;;;0.20;0.20;;;4.00;99.90;;;;;;5088316;28;20428;-77
2023/01/10 05:54:22;;;;;;;0.20;0.20;;;4.10;99.90;;;;;;5093491;28;20540;-78
2023/01/10 05:56:49;;;;;;;0.10;0.10;;;4.10;99.90;;;;;;5078157;28;20423;-78
2023/01/10 05:59:16;;;;;;;0.10;0.10;;;4.10;99.90;;;;;;5091037;28;20479;-78
2023/01/10 06:01:54;;;;;;;0.20;0.20;;;4.10;99.90;;;;;;5078188;28;20939;-78
2023/01/10 06:04:26;;;;;;;0.20;0.20;;;4.10;99.90;;;;;;5087396;28;20465;-77
2023/01/10 06:06:53;;;;;;;0.17;0.17;;;4.10;99.90;;;;;;5084603;28;20450;-78
2023/01/10 06:09:19;;;;;;;0.15;0.15;;;4.10;99.90;;;;;;5092187;28;20426;-78
2023/01/10 06:11:46;;;;;;;0.10;0.10;;;4.10;99.90;;;;;;5077217;28;20515;-77
2023/01/10 06:14:17;;;;;;;0.25;0.25;;;4.10;99.90;;;;;;5075953;28;20430;-74
2023/01/10 06:16:47;;;;;;;0.10;0.10;;;4.10;99.90;;;;;;5078788;28;21460;-74
2023/01/10 06:19:14;;;;;;;0.30;0.30;;;4.10;99.90;;;;;;5084624;28;20418;-75
2023/01/10 06:21:41;;;;;;;0.10;0.10;;;4.10;99.90;;;;;;5077942;28;20657;-74
2023/01/10 06:24:08;;;;;;;0.10;0.10;;;4.10;99.90;;;;;;5075928;28;20459;-74
2023/01/10 06:26:35;;;;;;;2.10;0.20;;;4.10;99.90;;;;;;5076069;28;20432;-75
2023/01/10 06:29:02;;;;;;;0.10;0.10;;;4.00;99.90;;;;;;5074459;28;20429;-74
2023/01/10 06:31:28;;;;;;;0.10;0.10;;;3.90;99.90;;;;;;5073780;28;20425;-74
2023/01/10 06:33:55;;;;;;;0.10;0.10;;;3.80;99.90;;;;;;5069046;28;20475;-74
2023/01/10 06:36:24;;;;;;;0.40;0.35;;;3.60;99.90;;;;;;5091569;28;20421;-74
2023/01/10 06:38:54;;;;;;;0.20;0.20;;;3.40;99.90;;;;;;5078545;28;20426;-74
2023/01/10 06:41:21;;;;;;;0.20;0.20;;;3.10;99.90;;;;;;5088579;28;20428;-74
2023/01/10 06:43:48;;;;;;;0.10;0.10;;;3.00;99.90;;;;;;5067813;28;20477;-74
2023/01/10 06:46:18;;;;;;;0.17;0.17;;;2.80;99.90;;;;;;5076334;28;20458;-74
2023/01/10 06:48:46;;;;;;;0.10;0.10;;;2.70;99.90;;;;;;5086983;28;20946;-74
2023/01/10 06:51:14;;;;;;;0.20;0.20;;;2.60;99.90;;;;;;5092280;28;20428;-74
2023/01/10 06:53:42;;;;;;;0.28;0.28;;;2.60;99.90;;;;;;5078285;28;20451;-74
2023/01/10 06:56:09;;;;;;;0.10;0.10;;;2.50;99.90;;;;;;5088741;28;20435;-74
2023/01/10 06:58:37;;;;;;;0.10;0.10;;;2.40;99.90;;;;;;5076485;28;20435;-74
2023/01/10 07:01:05;;;;;;;0.20;0.20;;;2.30;99.90;;;;;;5070367;28;20427;-75
2023/01/10 07:03:35;;;;;;;0.50;0.50;;;2.30;99.90;;;;;;5075405;28;20435;-74
2023/01/10 07:06:08;;;;;;;0.70;0.32;;;2.40;99.90;;;;;;5085083;28;21103;-74
2023/01/10 07:08:40;;;;;;;0.40;0.40;;;2.40;99.90;;;;;;5089620;28;20429;-74
2023/01/10 07:11:08;;;;;;;0.22;0.22;;;2.30;99.90;;;;;;5088707;28;20847;-74
2023/01/10 07:13:35;;;;;;;0.30;0.30;;;2.10;99.90;;;;;;5083436;28;20439;-73
2023/01/10 07:16:07;;;;;;;0.30;0.30;;;2.00;99.90;;;;;;5070016;28;20432;-73
2023/01/10 07:18:35;;;;;;;0.30;0.30;;;1.90;99.90;;;;;;5074710;28;20430;-73
2023/01/10 07:21:02;;;;;;;0.28;0.28;;;1.90;99.90;;;;;;5068010;28;20443;-73
2023/01/10 07:23:31;;;;;;;0.80;0.20;;;1.90;99.90;;;;;;5073643;28;20499;-73
2023/01/10 07:26:04;;;;;;;0.10;0.10;;;1.90;99.90;;;;;;5080108;28;20472;-73
2023/01/10 07:28:33;;;;;;;0.20;0.20;;;2.00;99.90;;;;;;5085613;28;20458;-73
2023/01/10 07:31:04;;;;;;;2.30;0.70;;;2.00;99.90;;;;;;5081666;28;20487;-73
2023/01/10 07:33:31;;;;;;;0.10;0.10;;;2.20;99.90;;;;;;5071380;28;20769;-73
2023/01/10 07:35:59;;;;;;;0.30;0.30;;;2.30;99.90;;;;;;5085553;28;20426;-73
2023/01/10 07:38:27;;;;;;;0.30;0.30;;;2.60;1.00;;;;;;5079243;28;20429;-73
2023/01/10 07:40:54;;;;;;;0.50;0.50;;;2.70;99.90;;;;;;5067464;28;20438;-73
2023/01/10 07:43:21;;;;;;;0.60;0.50;;;2.80;1.00;;;;;;5076542;28;21109;-74
2023/01/10 07:45:47;;;;;;;0.10;0.10;;;3.00;99.90;;;;;;5082437;28;21849;-73
2023/01/10 07:48:15;;;;;;;0.43;0.43;;;2.90;99.90;;;;;;5073374;28;20428;-73
2023/01/10 07:50:45;;;;;;;0.60;0.32;;;2.80;99.90;;;;;;5087305;28;20426;-73
2023/01/10 07:53:12;;;;;;;0.20;0.20;;;2.80;99.90;;;;;;5072841;28;20959;-73
2023/01/10 07:55:38;;;;;;;0.17;0.17;;;2.80;99.90;;;;;;5068472;28;20426;-73
2023/01/10 07:58:06;;;;;;;7.10;0.50;;;2.80;99.90;;;;;;5085849;28;20430;-73
2023/01/10 08:00:34;;;;;;;0.30;0.30;;;2.80;1.00;;;;;;5079026;28;20952;-73
2023/01/10 08:03:01;;;;;;;2.50;0.30;;;2.90;1.00;;;;;;5071013;28;20433;-73
2023/01/10 08:05:28;;;;;;;2.00;0.73;;;2.90;1.00;;;;;;5063138;28;21071;-73
2023/01/10 08:07:58;;;;;;;0.20;0.20;;;2.90;99.90;;;;;;5072296;28;20526;-73
2023/01/10 08:10:26;;;;;;;0.70;0.50;;;2.90;99.90;;;;;;5075442;28;20443;-73
2023/01/10 08:12:53;;;;;;;0.60;0.60;;;3.00;99.90;;;;;;5083734;28;20811;-73
2023/01/10 08:15:23;;;;;;;0.63;0.63;;;3.10;99.90;;;;;;5080136;28;20512;-73
2023/01/10 08:17:50;;;;;;;0.70;0.52;;;3.20;99.90;;;;;;5090936;28;20430;-74
2023/01/10 08:20:19;;;;;;;3.20;0.40;;;3.30;99.90;;;;;;5086007;28;20504;-74
2023/01/10 08:22:45;;;;;;;1.80;0.30;;;3.50;99.90;;;;;;5079821;28;20427;-74
2023/01/10 08:25:12;;;;;;;0.13;0.13;;;3.60;99.90;;;;;;5082736;28;20437;-72
2023/01/10 08:27:39;;;;;;;0.20;0.20;;;3.70;99.90;;;;;;5089767;28;20431;-72
2023/01/10 08:30:06;;;;;;;6.50;0.77;;;3.90;99.90;;;;;;5084738;28;20975;-72
2023/01/10 08:32:33;;;;;;;0.20;0.20;;;4.00;99.90;;;;;;5087015;28;20448;-72
2023/01/10 08:34:59;;;;;;;1.70;0.50;;;4.20;99.90;;;;;;5076645;28;20945;-72
2023/01/10 08:37:27;;;;;;;0.63;0.63;;;4.30;99.90;;;;;;5082631;28;20423;-72
2023/01/10 08:39:54;;;;;;;1.60;0.47;;;4.50;99.90;;;;;;5073668;28;20423;-72
2023/01/10 08:42:20;;;;;;;0.40;0.40;;;4.60;99.90;;;;;;5086778;28;20432;-72
2023/01/10 08:44:47;;;;;;;1.30;0.47;;;4.70;99.90;;;;;;5084689;28;20436;-72
2023/01/10 08:47:14;;;;;;;0.40;0.40;;;4.80;99.90;;;;;;5074886;28;20430;-72
2023/01/10 08:49:41;;;;;;;1.10;1.00;;;4.90;99.90;;;;;;5109362;28;20485;-72
2023/01/10 08:52:08;;;;;;;1.20;0.50;;;4.90;99.90;;;;;;5086134;28;20429;-72
2023/01/10 08:54:35;;;;;;;7.40;0.30;;;4.90;99.90;;;;;;5081415;28;20534;-72
2023/01/10 08:57:02;;;;;;;0.63;0.45;;;4.90;99.90;;;;;;5098376;28;20431;-74
2023/01/10 08:59:29;;;;;;;1.50;0.40;;;5.10;99.90;;;;;;5082660;28;20973;-74
2023/01/10 09:01:58;;;;;;;0.73;0.32;;;5.30;99.90;;;;;;5079284;28;20433;-74
2023/01/10 09:04:27;;;;;;;0.20;0.20;;;5.40;99.90;;;;;;5075217;28;20422;-74
2023/01/10 09:06:54;;;;;;;1.30;0.32;;;5.60;99.90;;;;;;5082471;28;20521;-72
2023/01/10 09:09:21;;;;;;;0.77;0.77;;;5.80;99.90;;;;;;5084483;28;20426;-72
2023/01/10 09:11:48;;;;;;;0.70;0.20;;;6.10;99.90;;;;;;5081585;28;20480;-72
2023/01/10 09:14:15;;;;;;;0.30;0.30;;;6.20;99.90;;;;;;5073686;28;20435;-72
2023/01/10 09:16:42;;;;;;;0.30;0.30;;;6.30;99.90;;;;;;5078368;28;20426;-71
2023/01/10 09:19:09;;;;;;;0.20;0.20;;;6.40;99.90;;;;;;5082707;28;20486;-72
2023/01/10 09:21:35;;;;;;;0.20;0.20;;;6.30;99.90;;;;;;5084268;28;20477;-72
2023/01/10 09:24:03;;;;;;;0.30;0.30;;;6.20;99.90;;;;;;5078078;28;20479;-72
2023/01/10 09:26:30;;;;;;;0.60;0.40;;;6.20;99.90;;;;;;5084139;28;20715;-72
2023/01/10 09:28:57;;;;;;;0.88;0.28;;;6.30;99.90;;;;;;5080546;28;20425;-72
2023/01/10 09:31:24;;;;;;;0.10;0.10;;;6.50;99.90;;;;;;5076314;28;20446;-72
2023/01/10 09:33:51;;;;;;;0.20;0.20;;;6.60;99.90;;;;;;5076804;28;20420;-73
2023/01/10 09:36:17;;;;;;;0.80;0.50;;;6.80;99.90;;;;;;5111647;28;20428;-72
2023/01/10 09:38:44;;;;;;;0.45;0.15;;;6.90;99.90;;;;;;5088930;28;20437;-73
2023/01/10 09:41:29;;;;;;;1.30;0.22;;;7.10;99.90;;;;;;5078240;28;20883;-72
2023/01/10 09:44:17;;;;;;;1.25;0.60;;;7.10;99.90;;;;;;5075126;28;20479;-72
2023/01/10 09:47:07;;;;;;;0.20;0.20;;;7.10;99.90;;;;;;5089090;28;20512;-72
2023/01/10 09:50:14;;;;;;;0.60;0.40;;;7.00;99.90;;;;;;5107636;28;20483;-72
2023/01/10 09:52:49;;;;;;;0.30;0.30;;;7.40;99.90;;;;;;5090851;28;20477;-71
2023/01/10 09:55:31;;;;;;;0.35;0.35;;;7.80;99.90;;;;;;5101224;28;20424;-72
2023/01/10 09:58:04;;;;;;;2.10;1.00;;;8.10;99.90;;;;;;5074930;28;20440;-72
2023/01/10 10:00:51;;;;;;;0.30;0.30;;;8.20;99.90;;;;;;5075513;28;20949;-71
2023/01/10 10:03:37;;;;;;;0.30;0.30;;;7.80;99.90;;;;;;5074242;28;20432;-72
2023/01/10 10:06:11;;;;;;;3.70;0.43;;;7.60;99.90;;;;;;5079034;28;20556;-72
2023/01/10 10:08:45;;;;;;;2.40;0.68;;;7.70;99.90;;;;;;5088015;28;20927;-72
2023/01/10 10:11:25;;;;;;;0.30;0.30;;;7.50;99.90;;;;;;5078036;28;20427;-72
2023/01/10 10:14:15;;;;;;;0.70;0.70;;;7.50;99.90;;;;;;5084914;28;20438;-72
2023/01/10 10:17:04;;;;;;;2.30;0.55;;;7.50;99.90;;;;;;5092250;28;20426;-71
2023/01/10 10:19:39;;;;;;;0.20;0.20;;;7.30;99.90;;;;;;5088391;28;20432;-72
2023/01/10 10:22:17;;;;;;;0.45;0.45;;;7.20;99.90;;;;;;5089628;28;20924;-72
2023/01/10 10:25:08;;;;;;;1.10;0.50;;;6.80;99.90;;;;;;5091370;28;20459;-71
2023/01/10 10:27:54;;;;;;;0.43;0.43;;;7.00;99.90;;;;;;5073447;28;20913;-72
2023/01/10 10:30:51;;;;;;;0.30;0.30;;;7.10;99.90;;;;;;5081835;28;20434;-72
2023/01/10 10:33:29;;;;;;;0.28;0.28;;;6.90;99.90;;;;;;5076101;28;20441;-73
2023/01/10 10:36:02;;;;;;;1.00;0.40;;;7.20;99.90;;;;;;5078011;28;20425;-72
2023/01/10 10:38:38;;;;;;;6.18;0.65;;;7.20;99.90;;;;;;5089168;28;20422;-73
2023/01/10 10:41:16;;;;;;;0.30;0.30;;;7.30;99.90;;;;;;5084332;28;20420;-72
2023/01/10 10:43:46;;;;;;;0.20;0.20;;;7.40;99.90;;;;;;5079705;28;20417;-72
2023/01/10 10:46:17;;;;;;;0.40;0.30;;;7.30;99.90;;;;;;5071517;28;20514;-74
2023/01/10 10:48:55;;;;;;;0.40;0.40;;;7.20;99.90;;;;;;5091703;28;20961;-73
2023/01/10 10:51:37;;;;;;;2.10;0.57;;;7.00;99.90;;;;;;5072936;28;20439;-72
2023/01/10 10:54:06;;;;;;;2.63;0.82;;;6.90;99.90;;;;;;5075871;28;20465;-72
2023/01/10 10:56:34;;;;;;;0.60;0.60;;;6.80;99.90;;;;;;5092414;28;20459;-72
2023/01/10 10:59:02;;;;;;;0.40;0.40;;;6.80;99.90;;;;;;5087306;28;20483;-72
2023/01/10 11:01:29;;;;;;;0.50;0.50;;;6.60;99.90;;;;;;5088587;28;20420;-72
2023/01/10 11:04:05;;;;;;;0.40;0.40;;;6.60;99.90;;;;;;5098690;28;20503;-71
2023/01/10 11:06:34;;;;;;;0.85;0.75;;;6.40;99.90;;;;;;5078847;28;20504;-72
2023/01/10 11:09:04;;;;;;;0.30;0.30;;;6.40;99.90;;;;;;5078496;28;20427;-71
2023/01/10 11:11:38;;;;;;;1.17;0.45;;;6.30;99.90;;;;;;5084821;28;20431;-73
2023/01/10 11:14:08;;;;;;;0.20;0.20;;;6.20;99.90;;;;;;5100606;28;21007;-72
2023/01/10 11:16:40;;;;;;;0.37;0.37;;;6.20;99.90;;;;;;5077138;28;20432;-73
2023/01/10 11:19:25;;;;;;;0.30;0.30;;;6.30;99.90;;;;;;5085074;28;20430;-72
2023/01/10 11:21:59;;;;;;;1.10;0.50;;;6.30;99.90;;;;;;5089505;28;20435;-73
2023/01/10 11:24:29;;;;;;;0.75;0.38;;;6.30;99.90;;;;;;5085438;28;20424;-72
2023/01/10 11:27:00;;;;;;;0.30;0.30;;;6.40;99.90;;;;;;5079926;28;20434;-72
2023/01/10 11:29:30;;;;;;;2.25;0.60;;;6.50;99.90;;;;;;5099182;28;20424;-72
2023/01/10 11:31:58;;;;;;;0.90;0.70;;;6.50;99.90;;;;;;5080637;28;20433;-72
2023/01/10 11:34:34;;;;;;;0.28;0.28;;;6.40;99.90;;;;;;5079273;28;20427;-72
2023/01/10 11:37:18;;;;;;;0.40;0.38;;;6.40;99.90;;;;;;5076923;28;20448;-71
2023/01/10 11:39:45;;;;;;;0.60;0.40;;;6.60;99.90;;;;;;5084185;28;20835;-72
2023/01/10 11:42:25;;;;;;;6.13;0.73;;;6.60;99.90;;;;;;5082983;28;20429;-72
2023/01/10 11:44:51;;;;;;;0.40;0.40;;;6.80;99.90;;;;;;5087676;28;20511;-72
2023/01/10 11:47:19;;;;;;;0.43;0.43;;;7.00;99.90;;;;;;5099658;28;20452;-72
2023/01/10 11:49:48;;;;;;;1.30;0.40;;;7.30;99.90;;;;;;5079774;28;20442;-71
2023/01/10 11:52:29;;;;;;;0.20;0.20;;;7.40;99.90;;;;;;5087484;28;20827;-71
2023/01/10 11:54:59;;;;;;;5.00;0.40;;;7.60;99.90;;;;;;5075313;28;20428;-71
2023/01/10 11:57:33;;;;;;;0.43;0.43;;;7.70;99.90;;;;;;5083757;28;20432;-71
2023/01/10 12:00:04;;;;;;;0.20;0.20;;;7.60;99.90;;;;;;5068556;28;20490;-73
2023/01/10 12:02:33;;;;;;;4.53;0.43;;;7.60;99.90;;;;;;5079501;28;20419;-71
2023/01/10 12:05:07;;;;;;;0.50;0.50;;;7.70;99.90;;;;;;5076562;28;20436;-71
2023/01/10 12:07:54;;;;;;;3.38;1.23;;;7.70;99.90;;;;;;5095419;28;20438;-71
2023/01/10 12:10:22;;;;;;;1.05;1.05;;;8.00;99.90;;;;;;5077673;28;20969;-71
2023/01/10 12:12:58;;;;;;;1.75;0.63;;;8.30;99.90;;;;;;5081868;28;20521;-71
2023/01/10 12:15:45;;;;;;;1.50;0.45;;;8.30;99.90;;;;;;5105826;28;20420;-71
2023/01/10 12:18:12;;;;;;;2.00;0.70;;;8.00;99.90;;;;;;5108722;28;20424;-71
2023/01/10 12:20:51;;;;;;;0.98;0.80;;;8.00;99.90;;;;;;5109768;28;20427;-72
2023/01/10 12:23:21;;;;;;;0.90;0.40;;;8.00;99.90;;;;;;5070566;28;20431;-73
2023/01/10 12:25:51;;;;;;;1.60;0.77;;;8.10;99.90;;;;;;5071306;28;20431;-72
2023/01/10 12:28:34;;;;;;;1.40;0.55;;;8.10;99.90;;;;;;5088380;28;20433;-71
2023/01/10 12:31:04;;;;;;;0.82;0.82;;;8.10;99.90;;;;;;5077942;28;20906;-72
2023/01/10 12:33:56;;;;;;;3.20;0.80;;;7.90;99.90;;;;;;5072767;28;20437;-72
2023/01/10 12:36:31;;;;;;;5.78;0.47;;;7.80;99.90;;;;;;5079981;28;20431;-72
2023/01/10 12:39:25;;;;;;;0.60;0.60;;;7.80;99.90;;;;;;5084535;28;20430;-73
2023/01/10 12:45:05;;;;;;;0.65;0.65;;;8.00;99.90;;;;;;5072003;28;20429;-72
2023/01/10 12:47:37;;;;;;;0.77;0.50;;;8.00;99.90;;;;;;5079982;28;20435;-73
2023/01/10 12:50:43;;;;;;;3.40;0.60;;;8.00;99.90;;;;;;5072239;28;20483;-72
2023/01/10 12:53:34;;;;;;;0.70;0.70;;;7.90;99.90;;;;;;5082217;28;20439;-73
2023/01/10 12:56:10;;;;;;;1.10;0.70;;;7.80;99.90;;;;;;5078407;28;20506;-71
2023/01/10 12:58:44;;;;;;;0.50;0.50;;;7.70;99.90;;;;;;5080921;28;20426;-72
2023/01/10 13:01:18;;;;;;;1.80;0.38;;;7.50;99.90;;;;;;5089373;28;20514;-73
2023/01/10 13:03:53;;;;;;;4.65;0.60;;;7.50;99.90;;;;;;5095750;28;20429;-72
2023/01/10 13:06:31;;;;;;;0.30;0.30;;;7.50;99.90;;;;;;5092881;28;20437;-72
2023/01/10 13:09:19;;;;;;;0.60;0.60;;;7.60;99.90;;;;;;5101467;28;20515;-73
2023/01/10 13:12:00;;;;;;;0.20;0.20;;;7.50;99.90;;;;;;5076243;28;20443;-71
2023/01/10 13:14:54;;;;;;;1.00;0.50;;;7.50;99.90;;;;;;5079819;28;20430;-72
2023/01/10 13:17:23;;;;;;;1.70;0.40;;;7.60;99.90;;;;;;5082656;28;21014;-73
2023/01/10 13:20:15;;;;;;;1.40;0.40;;;7.70;99.90;;;;;;5075716;28;20432;-73
2023/01/10 13:22:47;;;;;;;2.00;0.40;;;7.60;99.90;;;;;;5080556;28;20422;-71
2023/01/10 13:25:23;;;;;;;0.90;0.50;;;7.50;99.90;;;;;;5076015;28;20462;-74
2023/01/10 13:27:56;;;;;;;0.60;0.47;;;7.20;99.90;;;;;;5084829;28;20424;-71
2023/01/10 13:30:31;;;;;;;0.40;0.40;;;7.10;99.90;;;;;;5095666;28;20530;-72
2023/01/10 13:33:19;;;;;;;1.08;0.60;;;7.20;99.90;;;;;;5095646;28;20428;-72
2023/01/10 13:35:48;;;;;;;0.20;0.20;;;7.20;99.90;;;;;;5080335;28;20428;-71